Time;durP1;ratioP1;P1;durP2;ratioP2;P2;SDS_P1;SDS_P2;PMS_P1;PMS_P2;Temp;Humidity;BMP_temperature;BMP_pressure;BME280_temperature;BME280_humidity;BME280_pressure;Samples;Min_cycle;Max_cycle;Signal;HPM_P1;HPM_P2
2022/09/12 00:02:23;;;;;;;;;;;;;;;12.07;100.00;101653.63;5319444;27;20019;-76
2022/09/12 00:04:55;;;;;;;;;;;;;;;12.07;100.00;101655.47;5320872;27;19920;-80
2022/09/12 00:07:26;;;;;;;;;;;;;;;12.05;100.00;101652.06;5322684;27;19916;-77
2022/09/12 00:09:57;;;;;;;;;;;;;;;12.05;100.00;101644.06;5318927;27;19939;-76
2022/09/12 00:12:28;;;;;;;;;;;;;;;12.04;100.00;101645.88;5318991;27;19946;-77
2022/09/12 00:14:59;;;;;;;;;;;;;;;12.03;100.00;101644.19;5321027;27;19924;-77
2022/09/12 00:17:33;;;;;;;;;;;;;;;12.04;100.00;101642.34;5318530;27;20277;-77
2022/09/12 00:20:06;;;;;;;;;;;;;;;12.02;100.00;101633.59;5319868;27;20376;-77
2022/09/12 00:22:37;;;;;;;;;;;;;;;11.99;100.00;101636.53;5322985;27;19923;-77
2022/09/12 00:25:08;;;;;;;;;;;;;;;12.02;100.00;101637.13;5322835;27;20396;-77
2022/09/12 00:27:39;;;;;;;;;;;;;;;12.04;100.00;101637.00;5322500;27;19920;-78
2022/09/12 00:30:11;;;;;;;;;;;;;;;12.06;100.00;101643.06;5323770;27;19981;-78
2022/09/12 00:32:42;;;;;;;;;;;;;;;11.98;100.00;101638.38;5323728;27;19920;-78
2022/09/12 00:35:13;;;;;;;;;;;;;;;11.85;100.00;101637.69;5323257;27;19920;-78
2022/09/12 00:37:45;;;;;;;;;;;;;;;11.77;100.00;101634.84;5324421;27;19949;-78
2022/09/12 00:40:16;;;;;;;;;;;;;;;11.66;100.00;101625.91;5324377;27;20276;-78
2022/09/12 00:42:48;;;;;;;;;;;;;;;11.60;100.00;101628.25;5322609;27;19977;-78
2022/09/12 00:45:23;;;;;;;;;;;;;;;11.57;100.00;101623.16;5324104;27;19924;-78
2022/09/12 00:47:57;;;;;;;;;;;;;;;11.65;100.00;101626.88;5322837;27;19951;-78
2022/09/12 00:50:28;;;;;;;;;;;;;;;11.59;100.00;101619.41;5325044;27;20733;-78
2022/09/12 00:53:03;;;;;;;;;;;;;;;11.53;100.00;101622.56;5322786;27;19927;-78
2022/09/12 00:55:36;;;;;;;;;;;;;;;11.49;100.00;101623.81;5323801;27;19920;-78
2022/09/12 00:58:07;;;;;;;;;;;;;;;11.43;100.00;101622.53;5324762;27;19916;-78
2022/09/12 01:00:38;;;;;;;;;;;;;;;11.37;100.00;101620.34;5322451;27;21043;-78
2022/09/12 01:03:11;;;;;;;;;;;;;;;11.36;100.00;101610.66;5324147;27;19973;-78
2022/09/12 01:06:01;;;;;;;;;;;;;;;11.24;100.00;101607.19;5321874;27;19930;-78
2022/09/12 01:08:36;;;;;;;;;;;;;;;11.20;100.00;101600.38;5323319;27;20323;-78
2022/09/12 01:11:08;;;;;;;;;;;;;;;11.23;100.00;101605.47;5314823;27;19923;-78
2022/09/12 01:13:40;;;;;;;;;;;;;;;11.20;100.00;101603.06;5321286;27;19927;-79
2022/09/12 01:16:11;;;;;;;;;;;;;;;11.26;100.00;101594.56;5323196;27;19919;-78
2022/09/12 01:18:55;;;;;;;;;;;;;;;11.29;100.00;101599.63;5316707;27;19916;-78
2022/09/12 01:21:44;;;;;;;;;;;;;;;11.35;100.00;101604.44;5322031;27;19947;-78
2022/09/12 01:24:36;;;;;;;;;;;;;;;11.42;100.00;101598.59;5321718;27;19924;-79
2022/09/12 01:27:07;;;;;;;;;;;;;;;11.44;100.00;101599.31;5323558;27;20041;-77
2022/09/12 01:29:50;;;;;;;;;;;;;;;11.49;100.00;101583.75;5324072;27;21131;-77
2022/09/12 01:32:22;;;;;;;;;;;;;;;11.50;100.00;101586.28;5319585;27;19928;-78
2022/09/12 01:34:56;;;;;;;;;;;;;;;11.58;100.00;101593.66;5321922;27;19923;-78
2022/09/12 01:37:41;;;;;;;;;;;;;;;11.75;100.00;101594.88;5320838;27;20045;-78
2022/09/12 01:40:20;;;;;;;;;;;;;;;11.81;100.00;101580.13;5321655;27;19928;-79
2022/09/12 01:42:55;;;;;;;;;;;;;;;11.80;100.00;101583.78;5321742;27;19924;-78
2022/09/12 01:45:32;;;;;;;;;;;;;;;11.77;100.00;101587.56;5323081;27;19924;-78
2022/09/12 01:48:07;;;;;;;;;;;;;;;11.80;100.00;101598.00;5322012;27;20292;-78
2022/09/12 01:50:57;;;;;;;;;;;;;;;11.96;100.00;101597.56;5321374;27;19919;-79
2022/09/12 01:53:31;;;;;;;;;;;;;;;11.99;100.00;101589.28;5322426;27;19926;-79
2022/09/12 01:56:07;;;;;;;;;;;;;;;11.87;100.00;101584.97;5320573;27;19924;-78
2022/09/12 01:58:42;;;;;;;;;;;;;;;11.62;100.00;101575.53;5322058;27;19916;-78
2022/09/12 02:01:16;;;;;;;;;;;;;;;11.54;100.00;101566.34;5322137;27;20372;-78
2022/09/12 02:03:51;;;;;;;;;;;;;;;11.50;100.00;101570.25;5321978;27;19966;-78
2022/09/12 02:06:25;;;;;;;;;;;;;;;11.38;100.00;101562.44;5322883;27;19917;-78
2022/09/12 02:09:06;;;;;;;;;;;;;;;11.23;100.00;101556.56;5322597;27;19920;-78
2022/09/12 02:11:40;;;;;;;;;;;;;;;11.15;100.00;101560.75;5321586;27;20069;-79
2022/09/12 02:14:31;;;;;;;;;;;;;;;11.21;100.00;101558.53;5321513;27;20666;-78
2022/09/12 02:17:08;;;;;;;;;;;;;;;11.23;100.00;101556.56;5320153;27;19976;-78
2022/09/12 02:19:42;;;;;;;;;;;;;;;11.17;100.00;101549.94;5320769;27;19971;-78
2022/09/12 02:22:15;;;;;;;;;;;;;;;11.11;100.00;101553.94;5321723;27;19919;-78
2022/09/12 02:24:49;;;;;;;;;;;;;;;11.11;100.00;101561.94;5318999;27;19931;-78
2022/09/12 02:27:23;;;;;;;;;;;;;;;11.09;100.00;101555.91;5319081;27;19916;-79
2022/09/12 02:29:54;;;;;;;;;;;;;;;11.38;100.00;101565.09;5322117;27;20384;-78
2022/09/12 02:32:41;;;;;;;;;;;;;;;11.51;100.00;101561.25;5320226;27;20001;-78
2022/09/12 02:35:16;;;;;;;;;;;;;;;11.32;100.00;101563.81;5320728;27;19916;-78
2022/09/12 02:37:47;;;;;;;;;;;;;;;11.19;100.00;101568.50;5323126;27;19959;-78
2022/09/12 02:40:18;;;;;;;;;;;;;;;11.06;100.00;101569.53;5318188;27;19927;-79
2022/09/12 02:42:50;;;;;;;;;;;;;;;10.95;100.00;101564.22;5322369;27;19930;-78
2022/09/12 02:45:22;;;;;;;;;;;;;;;10.82;100.00;101551.06;5318925;27;19982;-78
2022/09/12 02:47:53;;;;;;;;;;;;;;;10.64;100.00;101555.22;5323110;27;19927;-78
2022/09/12 02:50:25;;;;;;;;;;;;;;;10.77;100.00;101545.25;5320989;27;19920;-78
2022/09/12 02:53:02;;;;;;;;;;;;;;;10.87;100.00;101548.84;5322095;27;19916;-78
2022/09/12 02:55:34;;;;;;;;;;;;;;;10.84;100.00;101542.91;5321559;27;20010;-78
2022/09/12 02:58:09;;;;;;;;;;;;;;;10.84;100.00;101551.75;5323047;27;19924;-78
2022/09/12 03:00:46;;;;;;;;;;;;;;;10.86;100.00;101536.47;5322514;27;20387;-78
2022/09/12 03:03:25;;;;;;;;;;;;;;;10.90;100.00;101537.91;5320731;27;20290;-78
2022/09/12 03:05:59;;;;;;;;;;;;;;;10.93;100.00;101528.81;5317424;27;19956;-78
2022/09/12 03:08:49;;;;;;;;;;;;;;;10.95;100.00;101534.84;5323166;27;19920;-78
2022/09/12 03:11:47;;;;;;;;;;;;;;;11.04;100.00;101535.91;5320500;27;19920;-78
2022/09/12 03:14:34;;;;;;;;;;;;;;;11.20;100.00;101528.28;5311542;27;20390;-78
2022/09/12 03:17:05;;;;;;;;;;;;;;;11.16;100.00;101532.22;5321025;27;20002;-78
2022/09/12 03:19:46;;;;;;;;;;;;;;;11.30;100.00;101533.72;5320644;27;19920;-78
2022/09/12 03:22:22;;;;;;;;;;;;;;;11.53;100.00;101537.94;5319242;27;19920;-78
2022/09/12 03:24:59;;;;;;;;;;;;;;;11.71;100.00;101530.16;5322462;27;19920;-79
2022/09/12 03:27:43;;;;;;;;;;;;;;;11.68;100.00;101530.44;5321306;27;20370;-78
2022/09/12 03:30:14;;;;;;;;;;;;;;;11.46;100.00;101531.41;5317786;27;19931;-78
2022/09/12 03:32:48;;;;;;;;;;;;;;;11.40;100.00;101520.44;5319865;27;20364;-78
2022/09/12 03:35:20;;;;;;;;;;;;;;;11.43;100.00;101531.69;5319821;27;19920;-78
2022/09/12 03:37:52;;;;;;;;;;;;;;;11.64;100.00;101522.78;5322518;27;19947;-78
2022/09/12 03:40:23;;;;;;;;;;;;;;;11.80;100.00;101527.66;5321383;27;19928;-78
2022/09/12 03:42:54;;;;;;;;;;;;;;;11.90;100.00;101520.53;5317817;27;20410;-78
2022/09/12 03:45:25;;;;;;;;;;;;;;;11.93;100.00;101530.16;5321208;27;19916;-78
2022/09/12 03:47:57;;;;;;;;;;;;;;;11.94;100.00;101530.03;5322779;27;19924;-79
2022/09/12 03:50:28;;;;;;;;;;;;;;;11.91;100.00;101522.25;5324202;27;19927;-78
2022/09/12 03:52:59;;;;;;;;;;;;;;;11.86;100.00;101527.97;5323609;27;19945;-78
2022/09/12 03:55:30;;;;;;;;;;;;;;;11.83;100.00;101522.91;5324496;27;19920;-78
2022/09/12 03:58:02;;;;;;;;;;;;;;;11.76;100.00;101520.88;5323854;27;19917;-78
2022/09/12 04:00:33;;;;;;;;;;;;;;;11.71;100.00;101515.94;5323401;27;19982;-78
2022/09/12 04:03:04;;;;;;;;;;;;;;;11.66;100.00;101513.69;5321690;27;19979;-78
2022/09/12 04:05:35;;;;;;;;;;;;;;;11.55;100.00;101508.41;5324715;27;19947;-78
2022/09/12 04:08:06;;;;;;;;;;;;;;;11.47;100.00;101505.56;5324373;27;19977;-78
2022/09/12 04:10:38;;;;;;;;;;;;;;;11.41;100.00;101501.56;5324991;27;19916;-79
2022/09/12 04:13:09;;;;;;;;;;;;;;;11.39;100.00;101502.69;5322621;27;19966;-79
2022/09/12 04:15:40;;;;;;;;;;;;;;;11.34;100.00;101501.28;5324969;27;19916;-79
2022/09/12 04:18:11;;;;;;;;;;;;;;;11.34;100.00;101505.75;5328021;27;19922;-79
2022/09/12 04:20:42;;;;;;;;;;;;;;;11.30;100.00;101497.16;5323393;27;19924;-79
2022/09/12 04:23:13;;;;;;;;;;;;;;;11.30;100.00;101504.34;5317632;27;19920;-78
2022/09/12 04:25:53;;;;;;;;;;;;;;;11.29;100.00;101497.28;5324763;27;19928;-79
2022/09/12 04:28:25;;;;;;;;;;;;;;;11.29;100.00;101494.63;5327656;27;19962;-78
2022/09/12 04:30:59;;;;;;;;;;;;;;;11.32;100.00;101495.19;5324628;27;19920;-79
2022/09/12 04:33:31;;;;;;;;;;;;;;;11.46;100.00;101491.34;5324877;27;20449;-79
2022/09/12 04:36:10;;;;;;;;;;;;;;;11.60;100.00;101492.00;5324230;27;19916;-78
2022/09/12 04:38:42;;;;;;;;;;;;;;;11.64;100.00;101496.06;5322969;27;19951;-78
2022/09/12 04:41:14;;;;;;;;;;;;;;;11.70;100.00;101491.03;5319525;27;20019;-78
2022/09/12 04:43:46;;;;;;;;;;;;;;;11.74;100.00;101488.94;5320522;27;19924;-78
2022/09/12 04:46:19;;;;;;;;;;;;;;;11.75;100.00;101484.47;5321092;27;20324;-78
2022/09/12 04:48:50;;;;;;;;;;;;;;;11.78;100.00;101485.06;5318904;27;20334;-78
2022/09/12 04:51:27;;;;;;;;;;;;;;;11.84;100.00;101492.50;5319877;27;19916;-78
2022/09/12 04:53:59;;;;;;;;;;;;;;;11.95;100.00;101490.75;5321935;27;19920;-78
2022/09/12 04:56:32;;;;;;;;;;;;;;;12.00;100.00;101488.53;5321632;27;20387;-77
2022/09/12 04:59:03;;;;;;;;;;;;;;;12.08;100.00;101489.53;5322779;27;19924;-78
2022/09/12 05:01:35;;;;;;;;;;;;;;;12.17;100.00;101492.38;5327654;27;19924;-78
2022/09/12 05:04:06;;;;;;;;;;;;;;;12.21;100.00;101501.81;5329258;27;20284;-78
2022/09/12 05:06:39;;;;;;;;;;;;;;;12.13;100.00;101490.94;5339478;27;20011;-78
2022/09/12 05:09:11;;;;;;;;;;;;;;;12.07;100.00;101487.84;5326947;27;20291;-78
2022/09/12 05:11:43;;;;;;;;;;;;;;;12.04;100.00;101492.59;5328020;27;19995;-78
2022/09/12 05:14:14;;;;;;;;;;;;;;;12.00;100.00;101489.38;5324726;27;20467;-78
2022/09/12 05:16:46;;;;;;;;;;;;;;;12.02;100.00;101499.94;5335621;27;19970;-77
2022/09/12 05:19:17;;;;;;;;;;;;;;;12.02;100.00;101497.25;5328785;27;19963;-78
2022/09/12 05:21:48;;;;;;;;;;;;;;;12.01;100.00;101499.09;5321446;27;19923;-78
2022/09/12 05:24:19;;;;;;;;;;;;;;;12.03;100.00;101499.78;5326172;27;20335;-78
2022/09/12 05:26:51;;;;;;;;;;;;;;;12.05;100.00;101497.00;5319452;27;20288;-78
2022/09/12 05:29:23;;;;;;;;;;;;;;;12.09;100.00;101501.91;5345149;27;20295;-78
2022/09/12 05:31:55;;;;;;;;;;;;;;;12.19;100.00;101496.59;5326786;27;19923;-79
2022/09/12 05:34:26;;;;;;;;;;;;;;;12.32;100.00;101503.53;5326398;27;19916;-78
2022/09/12 05:36:58;;;;;;;;;;;;;;;12.29;100.00;101496.63;5326368;27;20445;-79
2022/09/12 05:39:29;;;;;;;;;;;;;;;12.28;100.00;101495.75;5330449;27;19932;-78
2022/09/12 05:42:00;;;;;;;;;;;;;;;12.29;100.00;101502.81;5326040;27;41663;-79
2022/09/12 05:44:32;;;;;;;;;;;;;;;12.31;100.00;101502.69;5327244;27;20376;-79
2022/09/12 05:47:03;;;;;;;;;;;;;;;12.34;100.00;101499.75;5327221;27;19912;-78
2022/09/12 05:49:35;;;;;;;;;;;;;;;12.39;100.00;101504.66;5322581;27;19924;-78
2022/09/12 05:52:06;;;;;;;;;;;;;;;12.43;100.00;101503.38;5325594;27;19916;-78
2022/09/12 05:54:37;;;;;;;;;;;;;;;12.49;100.00;101510.88;5327005;27;19923;-78
2022/09/12 05:57:09;;;;;;;;;;;;;;;12.55;100.00;101513.00;5327363;27;20466;-79
2022/09/12 05:59:40;;;;;;;;;;;;;;;12.61;100.00;101506.25;5327680;27;19924;-79
2022/09/12 06:02:11;;;;;;;;;;;;;;;12.66;100.00;101510.19;5327028;27;19912;-77
2022/09/12 06:04:42;;;;;;;;;;;;;;;12.80;100.00;101516.97;5326273;27;19926;-79
2022/09/12 06:07:14;;;;;;;;;;;;;;;12.99;100.00;101517.94;5326510;27;19920;-79
2022/09/12 06:09:45;;;;;;;;;;;;;;;13.15;100.00;101515.53;5326551;27;20441;-79
2022/09/12 06:12:16;;;;;;;;;;;;;;;13.22;100.00;101521.19;5341928;27;20363;-79
2022/09/12 06:14:48;;;;;;;;;;;;;;;13.20;100.00;101521.31;5326397;27;20311;-79
2022/09/12 06:17:19;;;;;;;;;;;;;;;13.17;100.00;101520.75;5325230;27;19976;-78
2022/09/12 06:19:50;;;;;;;;;;;;;;;13.12;100.00;101515.81;5323550;27;20338;-78
2022/09/12 06:22:21;;;;;;;;;;;;;;;13.09;100.00;101512.59;5326748;27;20572;-78
2022/09/12 06:24:53;;;;;;;;;;;;;;;13.08;100.00;101518.91;5325220;27;19935;-78
2022/09/12 06:27:24;;;;;;;;;;;;;;;13.09;100.00;101513.41;5305326;28;19916;-78
2022/09/12 06:29:55;;;;;;;;;;;;;;;13.11;100.00;101515.97;5304777;28;19919;-78
2022/09/12 06:32:28;;;;;;;;;;;;;;;13.13;100.00;101508.63;5347652;27;19916;-79
2022/09/12 06:35:00;;;;;;;;;;;;;;;13.20;100.00;101509.72;5326385;27;19966;-79
2022/09/12 06:37:31;;;;;;;;;;;;;;;13.30;100.00;101509.72;5325652;27;19960;-79
2022/09/12 06:40:02;;;;;;;;;;;;;;;13.43;100.00;101503.09;5324272;27;20347;-79
2022/09/12 06:42:34;;;;;;;;;;;;;;;13.61;100.00;101505.88;5326468;27;19942;-79
2022/09/12 06:45:05;;;;;;;;;;;;;;;13.79;100.00;101510.47;5333017;27;19942;-79
2022/09/12 06:47:36;;;;;;;;;;;;;;;14.15;100.00;101508.75;5326520;27;19912;-80
2022/09/12 06:50:08;;;;;;;;;;;;;;;14.72;100.00;101508.53;5324743;27;19986;-80
2022/09/12 06:52:39;;;;;;;;;;;;;;;15.15;100.00;101514.13;5321921;27;19981;-79
2022/09/12 06:55:10;;;;;;;;;;;;;;;15.40;100.00;101506.22;5321278;27;20390;-79
2022/09/12 06:57:42;;;;;;;;;;;;;;;15.71;100.00;101509.28;5323233;27;19966;-79
2022/09/12 07:00:14;;;;;;;;;;;;;;;16.02;100.00;101511.44;5317050;27;20033;-81
2022/09/12 07:02:45;;;;;;;;;;;;;;;16.13;100.00;101507.63;5320672;27;19920;-80
2022/09/12 07:05:16;;;;;;;;;;;;;;;16.16;100.00;101501.91;5320230;27;19916;-80
2022/09/12 07:07:47;;;;;;;;;;;;;;;16.13;100.00;101496.84;5321680;27;19916;-80
2022/09/12 07:10:19;;;;;;;;;;;;;;;16.18;100.00;101490.00;5322234;27;19930;-80
2022/09/12 07:12:51;;;;;;;;;;;;;;;16.36;100.00;101492.56;5321180;27;20022;-80
2022/09/12 07:15:22;;;;;;;;;;;;;;;16.84;100.00;101490.13;5322045;27;19920;-80
2022/09/12 07:17:53;;;;;;;;;;;;;;;17.47;100.00;101485.00;5318711;27;19924;-80
2022/09/12 07:20:24;;;;;;;;;;;;;;;17.81;100.00;101483.88;5320881;28;19928;-80
2022/09/12 07:22:55;;;;;;;;;;;;;;;18.09;100.00;101479.75;5323441;27;19916;-80
2022/09/12 07:25:27;;;;;;;;;;;;;;;18.56;100.00;101475.25;5328758;27;19923;-79
2022/09/12 07:27:58;;;;;;;;;;;;;;;19.02;100.00;101461.75;5331127;27;19920;-79
2022/09/12 07:30:29;;;;;;;;;;;;;;;19.58;100.00;101466.75;5328086;27;19924;-79
2022/09/12 07:33:00;;;;;;;;;;;;;;;20.08;100.00;101466.16;5333175;27;19924;-80
2022/09/12 07:35:32;;;;;;;;;;;;;;;20.62;100.00;101465.72;5330926;27;20338;-79
2022/09/12 07:38:03;;;;;;;;;;;;;;;21.11;100.00;101464.06;5330856;27;19916;-79
2022/09/12 07:40:35;;;;;;;;;;;;;;;21.58;100.00;101464.38;5327300;27;20376;-79
2022/09/12 07:43:06;;;;;;;;;;;;;;;21.93;100.00;101469.78;5327822;27;20007;-79
2022/09/12 07:45:40;;;;;;;;;;;;;;;22.31;100.00;101472.03;5323490;27;19916;-79
2022/09/12 07:48:12;;;;;;;;;;;;;;;22.79;100.00;101475.47;5324877;27;19916;-80
2022/09/12 07:50:43;;;;;;;;;;;;;;;22.99;100.00;101474.63;5324612;27;19920;-79
2022/09/12 07:53:15;;;;;;;;;;;;;;;23.34;100.00;101468.97;5324736;27;19920;-79
2022/09/12 07:55:51;;;;;;;;;;;;;;;24.22;100.00;101475.81;5324790;27;19995;-80
2022/09/12 07:58:23;;;;;;;;;;;;;;;24.78;100.00;101483.22;5324412;27;19991;-80
2022/09/12 08:01:00;;;;;;;;;;;;;;;24.72;100.00;101487.69;5324278;27;20303;-80
2022/09/12 08:03:31;;;;;;;;;;;;;;;24.98;100.00;101474.91;5340033;27;20311;-80
2022/09/12 08:06:07;;;;;;;;;;;;;;;25.29;100.00;101467.69;5325257;27;19920;-80
2022/09/12 08:08:38;;;;;;;;;;;;;;;25.42;100.00;101472.19;5321197;27;19916;-80
2022/09/12 08:11:11;;;;;;;;;;;;;;;25.65;100.00;101464.16;5324278;27;19927;-80
2022/09/12 08:13:43;;;;;;;;;;;;;;;25.91;100.00;101470.38;5322604;27;19924;-80
2022/09/12 08:16:16;;;;;;;;;;;;;;;26.31;100.00;101475.31;5322425;27;19916;-80
2022/09/12 08:18:48;;;;;;;;;;;;;;;26.89;100.00;101470.25;5321101;28;20668;-80
2022/09/12 08:21:20;;;;;;;;;;;;;;;27.07;100.00;101472.91;5323902;27;19924;-80
2022/09/12 08:23:53;;;;;;;;;;;;;;;27.44;100.00;101472.69;5322412;27;20073;-80
2022/09/12 08:26:24;;;;;;;;;;;;;;;28.01;100.00;101479.34;5324269;27;20395;-80
2022/09/12 08:28:55;;;;;;;;;;;;;;;28.43;100.00;101479.88;5324289;27;19920;-80
2022/09/12 08:31:27;;;;;;;;;;;;;;;28.73;100.00;101483.44;5323373;27;19953;-80
2022/09/12 08:33:59;;;;;;;;;;;;;;;29.11;100.00;101490.09;5324133;27;20398;-80
2022/09/12 08:36:31;;;;;;;;;;;;;;;29.65;100.00;101484.84;5322699;27;19927;-80
2022/09/12 08:39:06;;;;;;;;;;;;;;;29.58;100.00;101492.47;5325306;27;20307;-80
2022/09/12 08:41:37;;;;;;;;;;;;;;;29.60;100.00;101485.63;5323661;27;19916;-80
2022/09/12 08:44:21;;;;;;;;;;;;;;;29.97;100.00;101485.00;5324509;27;19920;-80
2022/09/12 08:47:04;;;;;;;;;;;;;;;30.35;100.00;101491.50;5331409;27;19970;-80
2022/09/12 08:49:44;;;;;;;;;;;;;;;30.64;100.00;101487.63;5322182;27;19928;-80
2022/09/12 08:52:22;;;;;;;;;;;;;;;31.07;99.28;101485.81;5324129;27;19927;-79
2022/09/12 08:54:55;;;;;;;;;;;;;;;31.62;100.00;101478.97;5326539;27;19966;-80
2022/09/12 08:57:26;;;;;;;;;;;;;;;32.16;94.93;101477.00;5327358;27;19923;-81
2022/09/12 08:59:58;;;;;;;;;;;;;;;32.46;89.75;101467.94;5326764;27;19928;-80
2022/09/12 09:02:53;;;;;;;;;;;;;;;32.08;98.76;101463.72;5325065;27;19916;-80
2022/09/12 09:05:53;;;;;;;;;;;;;;;32.52;100.00;101464.09;5323018;27;20007;-80
2022/09/12 09:08:25;;;;;;;;;;;;;;;33.40;82.65;101469.53;5313675;27;20568;-79
2022/09/12 09:11:17;;;;;;;;;;;;;;;34.16;86.21;101468.38;5324510;28;19923;-80
2022/09/12 09:16:47;;;;;;;;;;;;;;;35.25;64.51;101458.06;5322292;27;19920;-80
2022/09/12 09:19:27;;;;;;;;;;;;;;;35.39;73.22;101458.19;5326397;27;19924;-80
2022/09/12 09:22:07;;;;;;;;;;;;;;;34.87;65.63;101459.81;5323520;27;19916;-80
2022/09/12 09:24:46;;;;;;;;;;;;;;;34.69;61.07;101458.59;5334094;27;19916;-80
2022/09/12 09:27:27;;;;;;;;;;;;;;;34.47;67.14;101455.16;5324952;27;20031;-80
2022/09/12 09:30:00;;;;;;;;;;;;;;;34.17;63.75;101458.97;5326934;27;19920;-79
2022/09/12 09:32:35;;;;;;;;;;;;;;;34.84;60.33;101453.75;5325773;28;20296;-80
2022/09/12 09:35:32;;;;;;;;;;;;;;;34.84;66.44;101447.41;5322409;27;19916;-80
2022/09/12 09:38:17;;;;;;;;;;;;;;;34.92;68.73;101449.50;5297125;28;20016;-80
2022/09/12 09:41:09;;;;;;;;;;;;;;;34.81;58.99;101446.03;5324290;28;19920;-79
2022/09/12 09:43:40;;;;;;;;;;;;;;;35.80;59.35;101443.00;5298532;27;19950;-80
2022/09/12 09:46:12;;;;;;;;;;;;;;;36.00;51.50;101433.56;5329071;27;19916;-79
2022/09/12 09:48:46;;;;;;;;;;;;;;;37.27;57.17;101433.34;5329820;27;19916;-80
2022/09/12 09:51:23;;;;;;;;;;;;;;;37.60;49.52;101433.19;5328043;27;19916;-80
2022/09/12 09:54:00;;;;;;;;;;;;;;;37.91;44.66;101426.16;5327425;27;19924;-79
2022/09/12 09:56:36;;;;;;;;;;;;;;;38.42;44.52;101429.69;5327148;27;19920;-80
2022/09/12 09:59:09;;;;;;;;;;;;;;;38.55;42.35;101424.03;5323468;28;20624;-79
2022/09/12 10:01:48;;;;;;;;;;;;;;;38.89;37.00;101416.22;5323290;27;19934;-80
2022/09/12 10:04:21;;;;;;;;;;;;;;;38.70;41.65;101414.47;5321532;28;20388;-80
2022/09/12 10:06:55;;;;;;;;;;;;;;;38.14;34.80;101415.91;5322890;27;19924;-80
2022/09/12 10:09:31;;;;;;;;;;;;;;;38.63;41.99;101402.97;5320334;27;20395;-80
2022/09/12 10:12:19;;;;;;;;;;;;;;;37.67;38.16;101404.16;5320560;28;19916;-80
2022/09/12 10:14:59;;;;;;;;;;;;;;;37.40;38.23;101414.19;5319379;27;20372;-80
2022/09/12 10:17:38;;;;;;;;;;;;;;;37.56;42.29;101395.19;5320417;27;19921;-80
2022/09/12 10:20:29;;;;;;;;;;;;;;;38.00;45.37;101394.47;5322217;27;20001;-80
2022/09/12 10:23:19;;;;;;;;;;;;;;;38.35;37.64;101393.91;5321877;28;19920;-80
2022/09/12 10:25:59;;;;;;;;;;;;;;;39.08;37.40;101379.72;5320488;27;19923;-80
2022/09/12 10:28:34;;;;;;;;;;;;;;;39.09;37.57;101375.78;5322215;27;19963;-80
2022/09/12 10:31:07;;;;;;;;;;;;;;;39.60;37.28;101374.25;5322010;27;20323;-80
2022/09/12 10:33:52;;;;;;;;;;;;;;;38.70;32.79;101377.44;5330634;27;19924;-80
2022/09/12 10:36:23;;;;;;;;;;;;;;;39.03;32.43;101375.13;5319930;27;19931;-79
2022/09/12 10:38:57;;;;;;;;;;;;;;;37.14;35.73;101370.19;5320701;27;19920;-80
2022/09/12 10:41:38;;;;;;;;;;;;;;;37.86;38.47;101363.06;5321692;27;19962;-80
2022/09/12 10:44:14;;;;;;;;;;;;;;;39.72;36.65;101359.66;5353325;27;20022;-80
2022/09/12 10:46:46;;;;;;;;;;;;;;;41.25;31.85;101363.84;5317317;27;20061;-80
2022/09/12 10:49:20;;;;;;;;;;;;;;;40.55;31.02;101355.75;5321430;27;20003;-80
2022/09/12 10:51:53;;;;;;;;;;;;;;;40.28;32.65;101348.59;5319659;27;19955;-80
2022/09/12 10:54:25;;;;;;;;;;;;;;;40.18;33.24;101343.38;5319956;27;20276;-80
2022/09/12 10:57:20;;;;;;;;;;;;;;;40.30;29.96;101351.06;5352468;27;19915;-79
2022/09/12 11:00:02;;;;;;;;;;;;;;;39.51;29.54;101348.31;5318567;27;20372;-80
2022/09/12 11:02:33;;;;;;;;;;;;;;;38.13;31.52;101339.91;5320419;27;19920;-80
2022/09/12 11:05:16;;;;;;;;;;;;;;;36.48;37.55;101331.41;5320266;27;19931;-80
2022/09/12 11:07:50;;;;;;;;;;;;;;;36.24;37.00;101330.75;5322932;27;19962;-78
2022/09/12 11:10:22;;;;;;;;;;;;;;;37.46;35.87;101324.72;5320297;27;19920;-79
2022/09/12 11:12:59;;;;;;;;;;;;;;;38.10;33.27;101317.38;5327368;27;20376;-80
2022/09/12 11:15:31;;;;;;;;;;;;;;;37.96;31.13;101335.00;5325553;27;20387;-80
2022/09/12 11:18:13;;;;;;;;;;;;;;;38.94;31.52;101326.81;5325076;27;19965;-80
2022/09/12 11:20:51;;;;;;;;;;;;;;;40.25;29.87;101316.56;5323003;28;20375;-80
2022/09/12 11:23:40;;;;;;;;;;;;;;;40.42;28.89;101320.50;5321434;27;20380;-80
2022/09/12 11:26:23;;;;;;;;;;;;;;;40.41;29.06;101308.50;5323566;28;19942;-80
2022/09/12 11:29:01;;;;;;;;;;;;;;;41.38;29.51;101320.00;5321320;28;20050;-80
2022/09/12 11:31:56;;;;;;;;;;;;;;;39.12;29.48;101316.59;5323489;27;19916;-80
2022/09/12 11:34:37;;;;;;;;;;;;;;;39.80;29.05;101307.75;5321462;27;19916;-80
2022/09/12 11:37:24;;;;;;;;;;;;;;;41.06;30.40;101308.31;5324232;27;19916;-80
2022/09/12 11:39:59;;;;;;;;;;;;;;;40.92;27.98;101300.22;5321043;28;20177;-80
2022/09/12 11:42:35;;;;;;;;;;;;;;;41.74;28.01;101316.56;5323963;27;19927;-80
2022/09/12 11:45:12;;;;;;;;;;;;;;;43.02;27.49;101310.13;5323569;27;20338;-81
2022/09/12 11:47:47;;;;;;;;;;;;;;;43.47;23.92;101316.72;5323399;27;19922;-80
2022/09/12 11:50:25;;;;;;;;;;;;;;;41.93;24.83;101316.06;5322592;27;19916;-80
2022/09/12 11:53:00;;;;;;;;;;;;;;;40.60;25.47;101316.44;5321166;28;19916;-81
2022/09/12 11:55:37;;;;;;;;;;;;;;;39.85;26.71;101314.00;5324256;27;19920;-80
2022/09/12 11:58:10;;;;;;;;;;;;;;;39.36;26.68;101309.72;5321405;27;19935;-80
2022/09/12 12:00:50;;;;;;;;;;;;;;;39.60;29.74;101312.06;5323895;27;19916;-80
2022/09/12 12:03:21;;;;;;;;;;;;;;;39.80;26.63;101308.59;5320274;28;19977;-80
2022/09/12 12:06:08;;;;;;;;;;;;;;;39.83;25.99;101304.31;5324295;27;19916;-80
2022/09/12 12:08:40;;;;;;;;;;;;;;;39.25;27.05;101298.06;5323886;27;19973;-81
2022/09/12 12:11:13;;;;;;;;;;;;;;;38.49;29.71;101291.56;5322574;28;19912;-80
2022/09/12 12:13:50;;;;;;;;;;;;;;;38.32;32.94;101285.91;5329705;27;19917;-80
2022/09/12 12:16:25;;;;;;;;;;;;;;;39.42;27.78;101286.09;5341766;27;20330;-80
2022/09/12 12:19:00;;;;;;;;;;;;;;;40.48;26.90;101293.19;5325837;27;19957;-80
2022/09/12 12:21:36;;;;;;;;;;;;;;;39.54;28.07;101293.81;5327380;27;20010;-80
2022/09/12 12:24:07;;;;;;;;;;;;;;;39.18;26.15;101292.97;5327112;27;19958;-80
2022/09/12 12:26:42;;;;;;;;;;;;;;;39.00;27.04;101289.28;5325652;27;19920;-80
2022/09/12 12:29:16;;;;;;;;;;;;;;;39.16;27.85;101288.88;5326996;27;19916;-80
2022/09/12 12:32:02;;;;;;;;;;;;;;;39.06;27.71;101293.63;5323827;27;19916;-79
2022/09/12 12:34:35;;;;;;;;;;;;;;;40.21;26.41;101287.66;5321129;27;20371;-80
2022/09/12 12:37:15;;;;;;;;;;;;;;;41.14;26.28;101279.50;5324728;27;19926;-80
2022/09/12 12:39:49;;;;;;;;;;;;;;;40.62;27.10;101269.44;5324311;28;19924;-80
2022/09/12 12:42:33;;;;;;;;;;;;;;;40.61;25.90;101283.75;5323805;27;19920;-80
2022/09/12 12:45:07;;;;;;;;;;;;;;;39.69;25.47;101273.78;5322865;28;19924;-81
2022/09/12 12:47:44;;;;;;;;;;;;;;;39.53;27.48;101276.25;5323994;27;19928;-80
2022/09/12 12:50:15;;;;;;;;;;;;;;;40.57;26.84;101261.25;5324012;28;20324;-81
2022/09/12 12:52:56;;;;;;;;;;;;;;;41.24;25.85;101261.50;5323639;27;19931;-79
2022/09/12 12:55:32;;;;;;;;;;;;;;;41.64;25.52;101262.94;5325539;27;19963;-81
2022/09/12 12:58:05;;;;;;;;;;;;;;;40.79;24.75;101256.50;5321634;27;20057;-80
2022/09/12 13:00:38;;;;;;;;;;;;;;;39.58;26.83;101252.97;5321155;27;20395;-80
2022/09/12 13:03:18;;;;;;;;;;;;;;;40.03;26.05;101245.00;5323590;28;19916;-80
2022/09/12 13:05:52;;;;;;;;;;;;;;;39.02;25.63;101236.81;5323050;27;20380;-80
2022/09/12 13:08:30;;;;;;;;;;;;;;;38.56;27.09;101236.19;5328127;27;19923;-80
2022/09/12 13:11:06;;;;;;;;;;;;;;;39.55;26.25;101248.03;5327231;27;20330;-80
2022/09/12 13:13:37;;;;;;;;;;;;;;;39.13;25.71;101231.75;5306396;28;20368;-80